sensor_id;sensor_type;location;lat;lon;timestamp;P1;durP1;ratioP1;P2;durP2;ratioP2
15968;SDS011;8085;53.472;9.794;2024-01-06T00:01:56;7.15;;;4.15;;
15968;SDS011;8085;53.472;9.794;2024-01-06T00:04:23;8.10;;;4.13;;
15968;SDS011;8085;53.472;9.794;2024-01-06T00:06:50;7.90;;;4.15;;
15968;SDS011;8085;53.472;9.794;2024-01-06T00:09:17;6.60;;;3.88;;
15968;SDS011;8085;53.472;9.794;2024-01-06T00:11:44;6.95;;;3.88;;
15968;SDS011;8085;53.472;9.794;2024-01-06T00:14:12;5.53;;;3.60;;
15968;SDS011;8085;53.472;9.794;2024-01-06T00:16:39;8.00;;;3.72;;
15968;SDS011;8085;53.472;9.794;2024-01-06T00:19:06;6.45;;;3.58;;
15968;SDS011;8085;53.472;9.794;2024-01-06T00:21:33;7.70;;;3.90;;
15968;SDS011;8085;53.472;9.794;2024-01-06T00:24:00;6.93;;;3.90;;
15968;SDS011;8085;53.472;9.794;2024-01-06T00:26:27;6.32;;;3.45;;
15968;SDS011;8085;53.472;9.794;2024-01-06T00:28:54;8.20;;;3.95;;
15968;SDS011;8085;53.472;9.794;2024-01-06T00:31:22;7.97;;;3.65;;
15968;SDS011;8085;53.472;9.794;2024-01-06T00:33:49;7.70;;;3.75;;
15968;SDS011;8085;53.472;9.794;2024-01-06T00:36:16;7.55;;;3.83;;
15968;SDS011;8085;53.472;9.794;2024-01-06T00:38:43;7.25;;;4.05;;
15968;SDS011;8085;53.472;9.794;2024-01-06T00:41:10;7.07;;;3.75;;
15968;SDS011;8085;53.472;9.794;2024-01-06T00:43:36;7.30;;;3.95;;
15968;SDS011;8085;53.472;9.794;2024-01-06T00:46:03;6.43;;;3.40;;
15968;SDS011;8085;53.472;9.794;2024-01-06T00:48:32;7.30;;;3.80;;
15968;SDS011;8085;53.472;9.794;2024-01-06T00:50:58;5.38;;;3.25;;
15968;SDS011;8085;53.472;9.794;2024-01-06T00:53:25;8.27;;;4.15;;
15968;SDS011;8085;53.472;9.794;2024-01-06T00:55:52;5.85;;;3.67;;
15968;SDS011;8085;53.472;9.794;2024-01-06T00:58:19;7.57;;;3.97;;
15968;SDS011;8085;53.472;9.794;2024-01-06T01:00:46;6.95;;;3.92;;
15968;SDS011;8085;53.472;9.794;2024-01-06T01:03:13;8.00;;;4.03;;
15968;SDS011;8085;53.472;9.794;2024-01-06T01:05:41;8.90;;;4.22;;
15968;SDS011;8085;53.472;9.794;2024-01-06T01:08:08;8.05;;;4.50;;
15968;SDS011;8085;53.472;9.794;2024-01-06T01:10:35;7.82;;;4.22;;
15968;SDS011;8085;53.472;9.794;2024-01-06T01:13:03;7.97;;;4.07;;
15968;SDS011;8085;53.472;9.794;2024-01-06T01:15:30;8.00;;;4.10;;
15968;SDS011;8085;53.472;9.794;2024-01-06T01:17:57;7.22;;;4.00;;
15968;SDS011;8085;53.472;9.794;2024-01-06T01:20:24;8.13;;;4.07;;
15968;SDS011;8085;53.472;9.794;2024-01-06T01:22:52;8.02;;;4.22;;
15968;SDS011;8085;53.472;9.794;2024-01-06T01:25:19;7.47;;;4.18;;
15968;SDS011;8085;53.472;9.794;2024-01-06T01:27:45;7.57;;;3.92;;
15968;SDS011;8085;53.472;9.794;2024-01-06T01:30:12;6.80;;;3.85;;
15968;SDS011;8085;53.472;9.794;2024-01-06T01:32:40;7.22;;;3.85;;
15968;SDS011;8085;53.472;9.794;2024-01-06T01:35:07;8.13;;;4.40;;
15968;SDS011;8085;53.472;9.794;2024-01-06T01:37:35;7.40;;;4.28;;
15968;SDS011;8085;53.472;9.794;2024-01-06T01:40:04;7.47;;;4.28;;
15968;SDS011;8085;53.472;9.794;2024-01-06T01:42:32;7.90;;;3.95;;
15968;SDS011;8085;53.472;9.794;2024-01-06T01:44:59;8.48;;;3.95;;
15968;SDS011;8085;53.472;9.794;2024-01-06T01:47:26;7.80;;;3.80;;
15968;SDS011;8085;53.472;9.794;2024-01-06T01:49:53;8.57;;;4.22;;
15968;SDS011;8085;53.472;9.794;2024-01-06T01:52:21;9.65;;;4.00;;
15968;SDS011;8085;53.472;9.794;2024-01-06T01:54:48;7.55;;;3.78;;
15968;SDS011;8085;53.472;9.794;2024-01-06T01:57:17;7.00;;;3.83;;
15968;SDS011;8085;53.472;9.794;2024-01-06T01:59:44;7.47;;;4.15;;
15968;SDS011;8085;53.472;9.794;2024-01-06T02:02:11;6.32;;;3.80;;
15968;SDS011;8085;53.472;9.794;2024-01-06T02:04:38;8.68;;;4.55;;
15968;SDS011;8085;53.472;9.794;2024-01-06T02:07:05;7.78;;;3.65;;
15968;SDS011;8085;53.472;9.794;2024-01-06T02:09:32;7.78;;;3.78;;
15968;SDS011;8085;53.472;9.794;2024-01-06T02:11:59;7.93;;;4.15;;
15968;SDS011;8085;53.472;9.794;2024-01-06T02:14:27;7.32;;;3.85;;
15968;SDS011;8085;53.472;9.794;2024-01-06T02:16:54;9.60;;;4.10;;
15968;SDS011;8085;53.472;9.794;2024-01-06T02:19:21;7.55;;;3.78;;
15968;SDS011;8085;53.472;9.794;2024-01-06T02:21:51;7.38;;;3.80;;
15968;SDS011;8085;53.472;9.794;2024-01-06T02:24:19;8.07;;;3.95;;
15968;SDS011;8085;53.472;9.794;2024-01-06T02:26:46;6.20;;;3.58;;
15968;SDS011;8085;53.472;9.794;2024-01-06T02:29:12;7.55;;;3.90;;
15968;SDS011;8085;53.472;9.794;2024-01-06T02:31:39;6.40;;;3.70;;
15968;SDS011;8085;53.472;9.794;2024-01-06T02:34:06;7.35;;;3.75;;
15968;SDS011;8085;53.472;9.794;2024-01-06T02:36:33;8.20;;;4.25;;
15968;SDS011;8085;53.472;9.794;2024-01-06T02:39:01;7.32;;;4.07;;
15968;SDS011;8085;53.472;9.794;2024-01-06T02:41:28;7.35;;;3.65;;
15968;SDS011;8085;53.472;9.794;2024-01-06T02:43:55;8.90;;;3.92;;
15968;SDS011;8085;53.472;9.794;2024-01-06T02:46:22;8.98;;;4.40;;
15968;SDS011;8085;53.472;9.794;2024-01-06T02:48:49;8.27;;;3.83;;
15968;SDS011;8085;53.472;9.794;2024-01-06T02:51:16;8.02;;;3.95;;
15968;SDS011;8085;53.472;9.794;2024-01-06T02:53:43;7.60;;;4.03;;
15968;SDS011;8085;53.472;9.794;2024-01-06T02:56:11;7.15;;;3.88;;
15968;SDS011;8085;53.472;9.794;2024-01-06T02:58:38;7.50;;;4.15;;
15968;SDS011;8085;53.472;9.794;2024-01-06T03:01:05;8.02;;;4.07;;
15968;SDS011;8085;53.472;9.794;2024-01-06T03:03:32;6.30;;;3.65;;
15968;SDS011;8085;53.472;9.794;2024-01-06T03:05:59;7.90;;;4.00;;
15968;SDS011;8085;53.472;9.794;2024-01-06T03:08:26;7.00;;;3.97;;
15968;SDS011;8085;53.472;9.794;2024-01-06T03:10:53;10.07;;;4.22;;
15968;SDS011;8085;53.472;9.794;2024-01-06T03:13:21;10.20;;;4.15;;
15968;SDS011;8085;53.472;9.794;2024-01-06T03:15:48;8.80;;;4.05;;
15968;SDS011;8085;53.472;9.794;2024-01-06T03:18:15;9.55;;;4.55;;
15968;SDS011;8085;53.472;9.794;2024-01-06T03:20:42;10.95;;;4.82;;
15968;SDS011;8085;53.472;9.794;2024-01-06T03:23:08;10.43;;;4.55;;
15968;SDS011;8085;53.472;9.794;2024-01-06T03:25:36;10.25;;;4.75;;
15968;SDS011;8085;53.472;9.794;2024-01-06T03:28:03;8.45;;;4.18;;
15968;SDS011;8085;53.472;9.794;2024-01-06T03:30:31;8.07;;;4.13;;
15968;SDS011;8085;53.472;9.794;2024-01-06T03:32:58;9.38;;;4.43;;
15968;SDS011;8085;53.472;9.794;2024-01-06T03:35:25;7.53;;;4.13;;
15968;SDS011;8085;53.472;9.794;2024-01-06T03:37:52;7.32;;;4.07;;
15968;SDS011;8085;53.472;9.794;2024-01-06T03:40:19;7.70;;;4.53;;
15968;SDS011;8085;53.472;9.794;2024-01-06T03:42:45;9.02;;;4.80;;
15968;SDS011;8085;53.472;9.794;2024-01-06T03:45:13;9.00;;;4.40;;
15968;SDS011;8085;53.472;9.794;2024-01-06T03:47:41;8.48;;;4.65;;
15968;SDS011;8085;53.472;9.794;2024-01-06T03:50:08;9.40;;;5.35;;
15968;SDS011;8085;53.472;9.794;2024-01-06T03:52:35;8.98;;;4.38;;
15968;SDS011;8085;53.472;9.794;2024-01-06T03:55:02;8.18;;;4.85;;
15968;SDS011;8085;53.472;9.794;2024-01-06T03:57:30;7.15;;;4.47;;
15968;SDS011;8085;53.472;9.794;2024-01-06T03:59:57;9.75;;;4.90;;
15968;SDS011;8085;53.472;9.794;2024-01-06T04:02:24;9.70;;;4.53;;
15968;SDS011;8085;53.472;9.794;2024-01-06T04:04:52;8.95;;;4.60;;
15968;SDS011;8085;53.472;9.794;2024-01-06T04:07:19;7.57;;;4.78;;
15968;SDS011;8085;53.472;9.794;2024-01-06T04:09:46;10.18;;;4.82;;
15968;SDS011;8085;53.472;9.794;2024-01-06T04:12:13;9.30;;;4.35;;
15968;SDS011;8085;53.472;9.794;2024-01-06T04:14:40;9.05;;;4.93;;
15968;SDS011;8085;53.472;9.794;2024-01-06T04:17:06;8.32;;;4.60;;
15968;SDS011;8085;53.472;9.794;2024-01-06T04:19:33;7.45;;;4.25;;
15968;SDS011;8085;53.472;9.794;2024-01-06T04:22:01;9.35;;;4.50;;
15968;SDS011;8085;53.472;9.794;2024-01-06T04:24:28;7.18;;;4.05;;
15968;SDS011;8085;53.472;9.794;2024-01-06T04:26:55;7.75;;;4.35;;
15968;SDS011;8085;53.472;9.794;2024-01-06T04:29:22;7.80;;;4.43;;
15968;SDS011;8085;53.472;9.794;2024-01-06T04:31:49;8.10;;;4.65;;
15968;SDS011;8085;53.472;9.794;2024-01-06T04:34:16;10.45;;;4.80;;
15968;SDS011;8085;53.472;9.794;2024-01-06T04:36:43;8.60;;;4.30;;
15968;SDS011;8085;53.472;9.794;2024-01-06T04:39:11;6.95;;;4.55;;
15968;SDS011;8085;53.472;9.794;2024-01-06T04:41:38;10.32;;;4.65;;
15968;SDS011;8085;53.472;9.794;2024-01-06T04:44:05;8.18;;;4.55;;
15968;SDS011;8085;53.472;9.794;2024-01-06T04:46:32;7.00;;;4.35;;
15968;SDS011;8085;53.472;9.794;2024-01-06T04:48:59;9.90;;;4.68;;
15968;SDS011;8085;53.472;9.794;2024-01-06T04:51:26;7.90;;;4.30;;
15968;SDS011;8085;53.472;9.794;2024-01-06T04:53:53;6.78;;;4.53;;
15968;SDS011;8085;53.472;9.794;2024-01-06T04:56:21;9.23;;;4.88;;
15968;SDS011;8085;53.472;9.794;2024-01-06T04:58:48;10.02;;;5.18;;
15968;SDS011;8085;53.472;9.794;2024-01-06T05:01:15;8.02;;;4.47;;
15968;SDS011;8085;53.472;9.794;2024-01-06T05:03:42;7.93;;;4.78;;
15968;SDS011;8085;53.472;9.794;2024-01-06T05:06:09;11.38;;;4.97;;
15968;SDS011;8085;53.472;9.794;2024-01-06T05:08:36;7.28;;;4.47;;
15968;SDS011;8085;53.472;9.794;2024-01-06T05:11:06;8.00;;;4.30;;
15968;SDS011;8085;53.472;9.794;2024-01-06T05:13:34;8.75;;;4.78;;
15968;SDS011;8085;53.472;9.794;2024-01-06T05:16:02;8.82;;;4.90;;
15968;SDS011;8085;53.472;9.794;2024-01-06T05:18:29;8.23;;;4.57;;
15968;SDS011;8085;53.472;9.794;2024-01-06T05:20:56;10.98;;;4.80;;
15968;SDS011;8085;53.472;9.794;2024-01-06T05:23:23;8.15;;;4.57;;
15968;SDS011;8085;53.472;9.794;2024-01-06T05:25:50;10.70;;;4.95;;
15968;SDS011;8085;53.472;9.794;2024-01-06T05:28:17;8.27;;;4.72;;
15968;SDS011;8085;53.472;9.794;2024-01-06T05:30:45;9.10;;;4.45;;
15968;SDS011;8085;53.472;9.794;2024-01-06T05:33:12;8.55;;;4.95;;
15968;SDS011;8085;53.472;9.794;2024-01-06T05:35:40;8.27;;;4.50;;
15968;SDS011;8085;53.472;9.794;2024-01-06T05:38:07;8.63;;;4.57;;
15968;SDS011;8085;53.472;9.794;2024-01-06T05:40:34;9.50;;;4.57;;
15968;SDS011;8085;53.472;9.794;2024-01-06T05:43:01;8.73;;;4.90;;
15968;SDS011;8085;53.472;9.794;2024-01-06T05:45:28;8.57;;;4.57;;
15968;SDS011;8085;53.472;9.794;2024-01-06T05:47:56;9.73;;;4.70;;
15968;SDS011;8085;53.472;9.794;2024-01-06T05:50:23;7.97;;;4.45;;
15968;SDS011;8085;53.472;9.794;2024-01-06T05:52:49;10.00;;;4.78;;
15968;SDS011;8085;53.472;9.794;2024-01-06T05:55:17;9.05;;;4.93;;
15968;SDS011;8085;53.472;9.794;2024-01-06T05:57:44;8.98;;;4.70;;
15968;SDS011;8085;53.472;9.794;2024-01-06T06:00:11;11.05;;;5.20;;
15968;SDS011;8085;53.472;9.794;2024-01-06T06:02:38;8.63;;;4.65;;
15968;SDS011;8085;53.472;9.794;2024-01-06T06:05:07;9.48;;;4.75;;
15968;SDS011;8085;53.472;9.794;2024-01-06T06:07:35;8.57;;;5.10;;
15968;SDS011;8085;53.472;9.794;2024-01-06T06:10:05;11.10;;;5.43;;
15968;SDS011;8085;53.472;9.794;2024-01-06T06:12:33;8.02;;;4.43;;
15968;SDS011;8085;53.472;9.794;2024-01-06T06:15:00;9.38;;;5.05;;
15968;SDS011;8085;53.472;9.794;2024-01-06T06:17:28;8.85;;;5.10;;
15968;SDS011;8085;53.472;9.794;2024-01-06T06:19:55;10.30;;;5.03;;
15968;SDS011;8085;53.472;9.794;2024-01-06T06:22:24;10.43;;;4.95;;
15968;SDS011;8085;53.472;9.794;2024-01-06T06:24:55;9.50;;;5.07;;
15968;SDS011;8085;53.472;9.794;2024-01-06T06:27:22;9.55;;;5.05;;
15968;SDS011;8085;53.472;9.794;2024-01-06T06:29:49;10.40;;;5.50;;
15968;SDS011;8085;53.472;9.794;2024-01-06T06:32:16;9.52;;;4.85;;
15968;SDS011;8085;53.472;9.794;2024-01-06T06:34:42;8.88;;;4.70;;
15968;SDS011;8085;53.472;9.794;2024-01-06T06:37:09;8.23;;;4.70;;
15968;SDS011;8085;53.472;9.794;2024-01-06T06:39:38;9.07;;;4.93;;
15968;SDS011;8085;53.472;9.794;2024-01-06T06:42:04;9.25;;;4.97;;
15968;SDS011;8085;53.472;9.794;2024-01-06T06:44:32;13.70;;;6.35;;
15968;SDS011;8085;53.472;9.794;2024-01-06T06:46:58;10.57;;;4.95;;
15968;SDS011;8085;53.472;9.794;2024-01-06T06:49:26;13.25;;;5.63;;
15968;SDS011;8085;53.472;9.794;2024-01-06T06:51:53;10.70;;;5.32;;
15968;SDS011;8085;53.472;9.794;2024-01-06T06:54:21;11.60;;;5.53;;
15968;SDS011;8085;53.472;9.794;2024-01-06T06:56:49;11.23;;;4.93;;
15968;SDS011;8085;53.472;9.794;2024-01-06T06:59:16;10.32;;;5.22;;
15968;SDS011;8085;53.472;9.794;2024-01-06T07:01:43;11.07;;;5.20;;
15968;SDS011;8085;53.472;9.794;2024-01-06T07:04:10;9.40;;;5.03;;
15968;SDS011;8085;53.472;9.794;2024-01-06T07:06:37;8.70;;;5.05;;
15968;SDS011;8085;53.472;9.794;2024-01-06T07:09:04;9.73;;;5.03;;
15968;SDS011;8085;53.472;9.794;2024-01-06T07:11:31;11.75;;;5.50;;
15968;SDS011;8085;53.472;9.794;2024-01-06T07:13:59;9.82;;;5.32;;
15968;SDS011;8085;53.472;9.794;2024-01-06T07:16:26;11.40;;;5.45;;
15968;SDS011;8085;53.472;9.794;2024-01-06T07:18:53;10.70;;;5.60;;
15968;SDS011;8085;53.472;9.794;2024-01-06T07:21:20;9.65;;;5.25;;
15968;SDS011;8085;53.472;9.794;2024-01-06T07:23:48;9.38;;;5.30;;
15968;SDS011;8085;53.472;9.794;2024-01-06T07:26:15;10.88;;;5.13;;
15968;SDS011;8085;53.472;9.794;2024-01-06T07:28:42;9.23;;;4.75;;
15968;SDS011;8085;53.472;9.794;2024-01-06T07:31:11;12.05;;;5.82;;
15968;SDS011;8085;53.472;9.794;2024-01-06T07:33:37;11.80;;;5.55;;
15968;SDS011;8085;53.472;9.794;2024-01-06T07:36:05;11.55;;;5.53;;
15968;SDS011;8085;53.472;9.794;2024-01-06T07:38:32;12.82;;;5.93;;
15968;SDS011;8085;53.472;9.794;2024-01-06T07:40:59;9.68;;;5.32;;
15968;SDS011;8085;53.472;9.794;2024-01-06T07:43:25;9.07;;;5.20;;
15968;SDS011;8085;53.472;9.794;2024-01-06T07:45:53;10.27;;;5.15;;
15968;SDS011;8085;53.472;9.794;2024-01-06T07:48:21;10.88;;;5.30;;
15968;SDS011;8085;53.472;9.794;2024-01-06T07:50:48;11.95;;;5.78;;
15968;SDS011;8085;53.472;9.794;2024-01-06T07:53:15;8.60;;;4.68;;
15968;SDS011;8085;53.472;9.794;2024-01-06T07:55:42;11.00;;;5.38;;
15968;SDS011;8085;53.472;9.794;2024-01-06T07:58:09;10.02;;;4.85;;
15968;SDS011;8085;53.472;9.794;2024-01-06T08:00:36;10.65;;;5.10;;
15968;SDS011;8085;53.472;9.794;2024-01-06T08:03:03;10.63;;;5.28;;
15968;SDS011;8085;53.472;9.794;2024-01-06T08:05:32;12.45;;;5.10;;
15968;SDS011;8085;53.472;9.794;2024-01-06T08:07:59;11.05;;;4.95;;
15968;SDS011;8085;53.472;9.794;2024-01-06T08:10:26;12.73;;;5.68;;
15968;SDS011;8085;53.472;9.794;2024-01-06T08:12:53;10.35;;;5.30;;
15968;SDS011;8085;53.472;9.794;2024-01-06T08:15:20;10.30;;;5.45;;
15968;SDS011;8085;53.472;9.794;2024-01-06T08:17:47;8.57;;;4.95;;
15968;SDS011;8085;53.472;9.794;2024-01-06T08:20:13;10.50;;;5.15;;
15968;SDS011;8085;53.472;9.794;2024-01-06T08:22:42;10.90;;;5.43;;
15968;SDS011;8085;53.472;9.794;2024-01-06T08:25:09;11.55;;;5.15;;
15968;SDS011;8085;53.472;9.794;2024-01-06T08:27:36;9.77;;;5.05;;
15968;SDS011;8085;53.472;9.794;2024-01-06T08:30:03;8.48;;;4.97;;
15968;SDS011;8085;53.472;9.794;2024-01-06T08:32:31;9.48;;;4.75;;
15968;SDS011;8085;53.472;9.794;2024-01-06T08:34:58;10.15;;;5.80;;
15968;SDS011;8085;53.472;9.794;2024-01-06T08:37:25;10.57;;;5.22;;
15968;SDS011;8085;53.472;9.794;2024-01-06T08:39:53;9.38;;;5.03;;
15968;SDS011;8085;53.472;9.794;2024-01-06T08:42:20;11.20;;;5.22;;
15968;SDS011;8085;53.472;9.794;2024-01-06T08:44:48;11.35;;;5.15;;
15968;SDS011;8085;53.472;9.794;2024-01-06T08:47:15;10.25;;;5.40;;
15968;SDS011;8085;53.472;9.794;2024-01-06T08:49:42;11.55;;;5.32;;
15968;SDS011;8085;53.472;9.794;2024-01-06T08:52:09;10.70;;;5.20;;
15968;SDS011;8085;53.472;9.794;2024-01-06T08:54:36;8.85;;;4.72;;
15968;SDS011;8085;53.472;9.794;2024-01-06T08:57:04;9.88;;;5.40;;
15968;SDS011;8085;53.472;9.794;2024-01-06T08:59:31;10.10;;;5.32;;
15968;SDS011;8085;53.472;9.794;2024-01-06T09:01:58;10.43;;;5.35;;
15968;SDS011;8085;53.472;9.794;2024-01-06T09:04:26;9.90;;;4.53;;
15968;SDS011;8085;53.472;9.794;2024-01-06T09:06:53;10.65;;;5.53;;
15968;SDS011;8085;53.472;9.794;2024-01-06T09:09:20;10.13;;;5.32;;
15968;SDS011;8085;53.472;9.794;2024-01-06T09:11:48;12.18;;;5.88;;
15968;SDS011;8085;53.472;9.794;2024-01-06T09:14:16;8.82;;;4.72;;
15968;SDS011;8085;53.472;9.794;2024-01-06T09:16:43;10.10;;;5.60;;
15968;SDS011;8085;53.472;9.794;2024-01-06T09:19:10;10.20;;;5.47;;
15968;SDS011;8085;53.472;9.794;2024-01-06T09:21:37;10.57;;;5.25;;
15968;SDS011;8085;53.472;9.794;2024-01-06T09:24:04;11.20;;;5.25;;
15968;SDS011;8085;53.472;9.794;2024-01-06T09:26:31;11.30;;;5.03;;
15968;SDS011;8085;53.472;9.794;2024-01-06T09:28:59;9.38;;;4.75;;
15968;SDS011;8085;53.472;9.794;2024-01-06T09:31:27;8.73;;;4.78;;
15968;SDS011;8085;53.472;9.794;2024-01-06T09:33:55;14.07;;;5.25;;
15968;SDS011;8085;53.472;9.794;2024-01-06T09:36:22;11.70;;;5.30;;
15968;SDS011;8085;53.472;9.794;2024-01-06T09:38:49;8.68;;;4.75;;
15968;SDS011;8085;53.472;9.794;2024-01-06T09:41:15;8.73;;;5.22;;
15968;SDS011;8085;53.472;9.794;2024-01-06T09:43:42;10.30;;;5.55;;
15968;SDS011;8085;53.472;9.794;2024-01-06T09:46:10;12.95;;;5.35;;
15968;SDS011;8085;53.472;9.794;2024-01-06T09:48:45;11.10;;;4.78;;
15968;SDS011;8085;53.472;9.794;2024-01-06T09:51:13;13.23;;;5.13;;
15968;SDS011;8085;53.472;9.794;2024-01-06T09:53:43;8.40;;;4.93;;
15968;SDS011;8085;53.472;9.794;2024-01-06T09:56:14;11.25;;;5.25;;
15968;SDS011;8085;53.472;9.794;2024-01-06T09:58:42;9.63;;;5.00;;
15968;SDS011;8085;53.472;9.794;2024-01-06T10:01:11;11.35;;;5.32;;
15968;SDS011;8085;53.472;9.794;2024-01-06T10:03:39;11.90;;;5.93;;
15968;SDS011;8085;53.472;9.794;2024-01-06T10:06:07;11.80;;;5.40;;
15968;SDS011;8085;53.472;9.794;2024-01-06T10:08:35;10.30;;;4.88;;
15968;SDS011;8085;53.472;9.794;2024-01-06T10:11:02;10.68;;;5.38;;
15968;SDS011;8085;53.472;9.794;2024-01-06T10:13:29;15.32;;;5.78;;
15968;SDS011;8085;53.472;9.794;2024-01-06T10:15:56;13.75;;;5.68;;
15968;SDS011;8085;53.472;9.794;2024-01-06T10:18:24;10.45;;;5.15;;
15968;SDS011;8085;53.472;9.794;2024-01-06T10:20:51;10.10;;;5.20;;
15968;SDS011;8085;53.472;9.794;2024-01-06T10:23:20;11.38;;;5.47;;
15968;SDS011;8085;53.472;9.794;2024-01-06T10:25:51;10.95;;;5.65;;
15968;SDS011;8085;53.472;9.794;2024-01-06T10:28:20;10.43;;;5.03;;
15968;SDS011;8085;53.472;9.794;2024-01-06T10:30:48;12.27;;;5.28;;
15968;SDS011;8085;53.472;9.794;2024-01-06T10:33:16;11.77;;;5.68;;
15968;SDS011;8085;53.472;9.794;2024-01-06T10:35:43;9.57;;;5.30;;
15968;SDS011;8085;53.472;9.794;2024-01-06T10:38:10;11.82;;;5.03;;
15968;SDS011;8085;53.472;9.794;2024-01-06T10:40:39;10.55;;;5.70;;
15968;SDS011;8085;53.472;9.794;2024-01-06T10:43:06;11.82;;;5.50;;
15968;SDS011;8085;53.472;9.794;2024-01-06T10:45:35;11.60;;;5.35;;
15968;SDS011;8085;53.472;9.794;2024-01-06T10:48:03;11.60;;;5.70;;
15968;SDS011;8085;53.472;9.794;2024-01-06T10:50:32;9.77;;;5.32;;
15968;SDS011;8085;53.472;9.794;2024-01-06T10:52:59;8.77;;;5.00;;
15968;SDS011;8085;53.472;9.794;2024-01-06T10:55:28;9.57;;;5.10;;
15968;SDS011;8085;53.472;9.794;2024-01-06T10:57:57;11.18;;;5.50;;
15968;SDS011;8085;53.472;9.794;2024-01-06T11:00:25;14.88;;;5.60;;
15968;SDS011;8085;53.472;9.794;2024-01-06T11:02:52;10.05;;;5.00;;
15968;SDS011;8085;53.472;9.794;2024-01-06T11:05:21;10.60;;;4.80;;
15968;SDS011;8085;53.472;9.794;2024-01-06T11:07:49;10.55;;;5.15;;
15968;SDS011;8085;53.472;9.794;2024-01-06T11:10:19;9.90;;;5.05;;
15968;SDS011;8085;53.472;9.794;2024-01-06T11:15:41;10.05;;;5.10;;
15968;SDS011;8085;53.472;9.794;2024-01-06T11:18:09;8.20;;;4.60;;
15968;SDS011;8085;53.472;9.794;2024-01-06T11:24:10;10.45;;;4.70;;
15968;SDS011;8085;53.472;9.794;2024-01-06T11:26:42;9.10;;;5.03;;
15968;SDS011;8085;53.472;9.794;2024-01-06T11:29:11;9.30;;;4.93;;
15968;SDS011;8085;53.472;9.794;2024-01-06T11:31:38;8.65;;;4.57;;
15968;SDS011;8085;53.472;9.794;2024-01-06T11:34:12;8.93;;;4.38;;
15968;SDS011;8085;53.472;9.794;2024-01-06T11:36:40;8.07;;;4.43;;
15968;SDS011;8085;53.472;9.794;2024-01-06T11:39:15;10.40;;;4.32;;
15968;SDS011;8085;53.472;9.794;2024-01-06T11:42:00;8.20;;;4.28;;
15968;SDS011;8085;53.472;9.794;2024-01-06T11:44:30;8.85;;;4.53;;
15968;SDS011;8085;53.472;9.794;2024-01-06T11:47:00;8.65;;;4.28;;
15968;SDS011;8085;53.472;9.794;2024-01-06T11:49:29;6.72;;;3.92;;
15968;SDS011;8085;53.472;9.794;2024-01-06T11:51:56;8.43;;;4.25;;
15968;SDS011;8085;53.472;9.794;2024-01-06T11:54:23;7.93;;;4.32;;
15968;SDS011;8085;53.472;9.794;2024-01-06T11:56:50;9.27;;;4.53;;
15968;SDS011;8085;53.472;9.794;2024-01-06T11:59:18;12.55;;;4.20;;
15968;SDS011;8085;53.472;9.794;2024-01-06T12:01:47;7.10;;;3.90;;
15968;SDS011;8085;53.472;9.794;2024-01-06T12:04:14;9.70;;;4.28;;
15968;SDS011;8085;53.472;9.794;2024-01-06T12:06:41;7.47;;;4.13;;
15968;SDS011;8085;53.472;9.794;2024-01-06T12:09:09;7.65;;;4.13;;
15968;SDS011;8085;53.472;9.794;2024-01-06T12:11:39;9.60;;;4.28;;
15968;SDS011;8085;53.472;9.794;2024-01-06T12:14:06;8.35;;;4.70;;
15968;SDS011;8085;53.472;9.794;2024-01-06T12:16:33;7.18;;;3.97;;
15968;SDS011;8085;53.472;9.794;2024-01-06T12:19:01;9.02;;;4.57;;
15968;SDS011;8085;53.472;9.794;2024-01-06T12:21:29;9.75;;;4.15;;
15968;SDS011;8085;53.472;9.794;2024-01-06T12:24:11;8.20;;;4.28;;
15968;SDS011;8085;53.472;9.794;2024-01-06T12:26:40;8.93;;;4.22;;
15968;SDS011;8085;53.472;9.794;2024-01-06T12:29:07;7.00;;;3.88;;
15968;SDS011;8085;53.472;9.794;2024-01-06T12:31:36;10.27;;;4.28;;
15968;SDS011;8085;53.472;9.794;2024-01-06T12:34:05;7.53;;;4.07;;
15968;SDS011;8085;53.472;9.794;2024-01-06T12:36:32;7.07;;;3.92;;
15968;SDS011;8085;53.472;9.794;2024-01-06T12:38:59;8.32;;;4.03;;
15968;SDS011;8085;53.472;9.794;2024-01-06T12:41:27;9.25;;;3.83;;
15968;SDS011;8085;53.472;9.794;2024-01-06T12:43:54;9.13;;;4.20;;
15968;SDS011;8085;53.472;9.794;2024-01-06T12:46:21;8.13;;;4.43;;
15968;SDS011;8085;53.472;9.794;2024-01-06T12:48:48;6.05;;;3.45;;
15968;SDS011;8085;53.472;9.794;2024-01-06T12:51:16;6.78;;;3.72;;
15968;SDS011;8085;53.472;9.794;2024-01-06T12:53:43;7.75;;;3.95;;
15968;SDS011;8085;53.472;9.794;2024-01-06T12:56:09;7.22;;;3.63;;
15968;SDS011;8085;53.472;9.794;2024-01-06T12:58:39;7.53;;;3.72;;
15968;SDS011;8085;53.472;9.794;2024-01-06T13:01:06;8.05;;;3.72;;
15968;SDS011;8085;53.472;9.794;2024-01-06T13:03:33;6.88;;;3.85;;
15968;SDS011;8085;53.472;9.794;2024-01-06T13:06:00;7.53;;;3.85;;
15968;SDS011;8085;53.472;9.794;2024-01-06T13:08:30;8.38;;;3.92;;
15968;SDS011;8085;53.472;9.794;2024-01-06T13:10:57;8.57;;;3.88;;
15968;SDS011;8085;53.472;9.794;2024-01-06T13:13:24;7.18;;;3.50;;
15968;SDS011;8085;53.472;9.794;2024-01-06T13:15:51;6.50;;;3.85;;
15968;SDS011;8085;53.472;9.794;2024-01-06T13:18:18;5.63;;;3.38;;
15968;SDS011;8085;53.472;9.794;2024-01-06T13:20:45;6.38;;;3.42;;
15968;SDS011;8085;53.472;9.794;2024-01-06T13:23:11;6.60;;;3.33;;
15968;SDS011;8085;53.472;9.794;2024-01-06T13:25:40;6.15;;;3.47;;
15968;SDS011;8085;53.472;9.794;2024-01-06T13:28:07;7.43;;;3.60;;
15968;SDS011;8085;53.472;9.794;2024-01-06T13:30:34;6.15;;;3.33;;
15968;SDS011;8085;53.472;9.794;2024-01-06T13:33:01;8.52;;;4.13;;
15968;SDS011;8085;53.472;9.794;2024-01-06T13:35:28;8.63;;;4.03;;
15968;SDS011;8085;53.472;9.794;2024-01-06T13:37:56;6.00;;;3.53;;
15968;SDS011;8085;53.472;9.794;2024-01-06T13:40:23;8.13;;;3.95;;
15968;SDS011;8085;53.472;9.794;2024-01-06T13:42:51;7.53;;;3.72;;
15968;SDS011;8085;53.472;9.794;2024-01-06T13:45:19;9.90;;;4.10;;
15968;SDS011;8085;53.472;9.794;2024-01-06T13:47:46;7.45;;;3.72;;
15968;SDS011;8085;53.472;9.794;2024-01-06T13:50:13;12.30;;;5.30;;
15968;SDS011;8085;53.472;9.794;2024-01-06T13:52:42;18.80;;;6.20;;
15968;SDS011;8085;53.472;9.794;2024-01-06T13:55:10;11.15;;;4.25;;
15968;SDS011;8085;53.472;9.794;2024-01-06T13:57:38;4.65;;;3.25;;
15968;SDS011;8085;53.472;9.794;2024-01-06T14:00:08;5.65;;;3.40;;
15968;SDS011;8085;53.472;9.794;2024-01-06T14:02:36;7.13;;;3.03;;
15968;SDS011;8085;53.472;9.794;2024-01-06T14:05:04;5.53;;;3.28;;
15968;SDS011;8085;53.472;9.794;2024-01-06T14:07:33;5.82;;;3.25;;
15968;SDS011;8085;53.472;9.794;2024-01-06T14:10:00;6.38;;;3.13;;
15968;SDS011;8085;53.472;9.794;2024-01-06T14:12:28;5.30;;;2.78;;
15968;SDS011;8085;53.472;9.794;2024-01-06T14:14:56;7.65;;;3.80;;
15968;SDS011;8085;53.472;9.794;2024-01-06T14:17:25;6.13;;;3.40;;
15968;SDS011;8085;53.472;9.794;2024-01-06T14:19:52;7.07;;;3.25;;
15968;SDS011;8085;53.472;9.794;2024-01-06T14:22:18;6.30;;;3.58;;
15968;SDS011;8085;53.472;9.794;2024-01-06T14:24:45;5.82;;;2.83;;
15968;SDS011;8085;53.472;9.794;2024-01-06T14:27:13;4.75;;;3.10;;
15968;SDS011;8085;53.472;9.794;2024-01-06T14:29:40;5.50;;;2.88;;
15968;SDS011;8085;53.472;9.794;2024-01-06T14:32:07;4.65;;;2.63;;
15968;SDS011;8085;53.472;9.794;2024-01-06T14:34:35;4.30;;;2.78;;
15968;SDS011;8085;53.472;9.794;2024-01-06T14:37:02;5.55;;;2.95;;
15968;SDS011;8085;53.472;9.794;2024-01-06T14:39:29;5.25;;;3.17;;
15968;SDS011;8085;53.472;9.794;2024-01-06T14:41:56;4.28;;;2.95;;
15968;SDS011;8085;53.472;9.794;2024-01-06T14:44:22;6.53;;;3.17;;
15968;SDS011;8085;53.472;9.794;2024-01-06T14:46:52;5.50;;;3.13;;
15968;SDS011;8085;53.472;9.794;2024-01-06T14:49:19;5.43;;;3.17;;
15968;SDS011;8085;53.472;9.794;2024-01-06T14:51:47;3.80;;;2.80;;
15968;SDS011;8085;53.472;9.794;2024-01-06T14:54:14;8.15;;;3.38;;
15968;SDS011;8085;53.472;9.794;2024-01-06T14:56:41;8.40;;;3.78;;
15968;SDS011;8085;53.472;9.794;2024-01-06T14:59:08;4.93;;;3.25;;
15968;SDS011;8085;53.472;9.794;2024-01-06T15:01:35;4.75;;;2.90;;
15968;SDS011;8085;53.472;9.794;2024-01-06T15:04:02;5.75;;;3.65;;
15968;SDS011;8085;53.472;9.794;2024-01-06T15:06:29;5.50;;;3.08;;